Time;durP1;ratioP1;P1;durP2;ratioP2;P2;SDS_P1;SDS_P2;PMS_P1;PMS_P2;Temp;Humidity;BMP_temperature;BMP_pressure;BME280_temperature;BME280_humidity;BME280_pressure;Samples;Min_cycle;Max_cycle;Signal;HPM_P1;HPM_P2
2021/04/16 00:00:06;;;;;;;8.90;4.80;;;;;;;;;;5071963;28;20028;-65
2021/04/16 00:02:31;;;;;;;13.95;5.88;;;;;;;;;;5071626;28;20020;-65
2021/04/16 00:04:56;;;;;;;11.63;4.72;;;;;;;;;;5071530;28;20035;-66
2021/04/16 00:07:21;;;;;;;10.45;4.15;;;;;;;;;;5071707;28;20450;-66
2021/04/16 00:09:47;;;;;;;8.55;4.60;;;;;;;;;;5069144;28;20461;-65
2021/04/16 00:12:12;;;;;;;13.85;4.70;;;;;;;;;;5065438;28;20055;-64
2021/04/16 00:14:37;;;;;;;9.38;4.80;;;;;;;;;;5071269;28;20389;-65
2021/04/16 00:17:04;;;;;;;14.75;5.45;;;;;;;;;;5071145;28;20046;-67
2021/04/16 00:19:29;;;;;;;9.68;4.32;;;;;;;;;;5071632;28;20051;-65
2021/04/16 00:21:54;;;;;;;7.60;3.95;;;;;;;;;;5070833;28;20028;-65
2021/04/16 00:24:19;;;;;;;8.52;4.25;;;;;;;;;;5070896;28;20084;-65
2021/04/16 00:26:44;;;;;;;10.30;4.78;;;;;;;;;;5060276;28;20054;-65
2021/04/16 00:29:10;;;;;;;12.40;4.90;;;;;;;;;;5070571;28;20060;-65
2021/04/16 00:31:35;;;;;;;8.82;4.63;;;;;;;;;;5071136;28;20025;-66
2021/04/16 00:34:01;;;;;;;13.10;4.28;;;;;;;;;;5071410;28;20016;-65
2021/04/16 00:36:27;;;;;;;12.32;4.68;;;;;;;;;;5070564;28;20025;-65
2021/04/16 00:38:52;;;;;;;7.57;4.20;;;;;;;;;;5070415;28;20035;-64
2021/04/16 00:41:22;;;;;;;10.98;4.60;;;;;;;;;;5070811;28;20024;-65
2021/04/16 00:43:47;;;;;;;14.57;4.60;;;;;;;;;;5069623;28;20021;-65
2021/04/16 00:46:12;;;;;;;14.23;4.50;;;;;;;;;;5070991;28;20467;-65
2021/04/16 00:48:50;;;;;;;9.23;4.22;;;;;;;;;;5070470;28;20020;-66
2021/04/16 00:51:20;;;;;;;9.73;4.88;;;;;;;;;;5061045;28;20271;-65
2021/04/16 00:53:45;;;;;;;;;;;;;;;;;;5067120;28;20034;-67
2021/04/16 00:56:10;;;;;;;10.73;4.85;;;;;;;;;;5066962;28;19919;-65
2021/04/16 00:58:36;;;;;;;11.98;4.85;;;;;;;;;;5053230;28;20465;-65
2021/04/16 01:01:02;;;;;;;19.45;5.40;;;;;;;;;;5070207;28;20078;-65
2021/04/16 01:03:27;;;;;;;10.27;4.25;;;;;;;;;;5071223;28;20020;-65
2021/04/16 01:05:53;;;;;;;8.38;4.15;;;;;;;;;;5067115;28;20468;-64
2021/04/16 01:08:18;;;;;;;8.98;4.65;;;;;;;;;;5069262;28;20036;-66
2021/04/16 01:10:43;;;;;;;12.02;5.80;;;;;;;;;;5070344;28;20023;-64
2021/04/16 01:13:09;;;;;;;8.00;4.30;;;;;;;;;;5070521;28;20119;-65
2021/04/16 01:15:38;;;;;;;10.15;5.07;;;;;;;;;;5069880;28;20039;-67
2021/04/16 01:18:12;;;;;;;11.27;5.28;;;;;;;;;;5066852;28;20054;-65
2021/04/16 01:20:39;;;;;;;9.32;4.45;;;;;;;;;;5069963;28;20020;-66
2021/04/16 01:23:09;;;;;;;14.32;5.10;;;;;;;;;;5052336;28;20120;-66
2021/04/16 01:25:35;;;;;;;13.90;5.70;;;;;;;;;;5070353;28;20412;-65
2021/04/16 01:28:00;;;;;;;15.40;5.38;;;;;;;;;;5069993;28;20028;-64
2021/04/16 01:30:27;;;;;;;12.70;4.57;;;;;;;;;;5069365;28;20036;-65
2021/04/16 01:32:53;;;;;;;9.70;5.35;;;;;;;;;;5057434;28;20287;-65
2021/04/16 01:35:21;;;;;;;12.25;4.80;;;;;;;;;;5069483;28;20461;-65
2021/04/16 01:37:46;;;;;;;8.57;5.18;;;;;;;;;;5069908;28;20111;-65
2021/04/16 01:40:12;;;;;;;16.17;5.45;;;;;;;;;;5069786;28;20131;-64
2021/04/16 01:42:37;;;;;;;12.63;4.68;;;;;;;;;;5070655;28;20166;-64
2021/04/16 01:45:04;;;;;;;11.73;4.43;;;;;;;;;;5069339;28;20028;-65
2021/04/16 01:47:29;;;;;;;14.35;5.22;;;;;;;;;;5069872;28;20099;-64
2021/04/16 01:49:54;;;;;;;10.35;4.72;;;;;;;;;;5068607;28;20142;-66
2021/04/16 01:52:26;;;;;;;11.60;5.05;;;;;;;;;;5069701;28;20060;-65
2021/04/16 01:54:51;;;;;;;11.60;4.57;;;;;;;;;;5069633;28;20492;-65
2021/04/16 01:57:21;;;;;;;10.43;4.47;;;;;;;;;;5069854;28;20111;-65
2021/04/16 01:59:47;;;;;;;9.93;4.70;;;;;;;;;;5068536;28;20021;-65
2021/04/16 02:02:15;;;;;;;12.48;5.55;;;;;;;;;;5069360;28;20141;-64
2021/04/16 02:04:41;;;;;;;8.80;5.15;;;;;;;;;;5064161;28;20013;-66
2021/04/16 02:07:09;;;;;;;10.40;5.15;;;;;;;;;;5069602;28;20043;-65
2021/04/16 02:09:35;;;;;;;19.30;5.68;;;;;;;;;;5069805;28;20066;-65
2021/04/16 02:12:01;;;;;;;10.77;5.00;;;;;;;;;;5069379;28;20021;-66
2021/04/16 02:14:27;;;;;;;7.82;4.15;;;;;;;;;;5068704;28;20116;-65
2021/04/16 02:16:55;;;;;;;8.45;4.45;;;;;;;;;;5066926;28;20115;-65
2021/04/16 02:19:20;;;;;;;9.40;5.53;;;;;;;;;;5069929;28;20013;-64
2021/04/16 02:21:46;;;;;;;10.05;4.45;;;;;;;;;;5069505;28;20035;-65
2021/04/16 02:24:11;;;;;;;9.50;4.53;;;;;;;;;;5069908;28;20032;-68
2021/04/16 02:26:37;;;;;;;13.05;5.20;;;;;;;;;;5066454;28;20020;-65
2021/04/16 02:29:03;;;;;;;5.97;4.07;;;;;;;;;;5065585;28;20024;-65
2021/04/16 02:31:29;;;;;;;11.25;4.40;;;;;;;;;;5069491;28;20023;-64
2021/04/16 02:33:54;;;;;;;13.27;5.03;;;;;;;;;;5069256;28;20025;-66
2021/04/16 02:36:19;;;;;;;10.82;4.75;;;;;;;;;;5069457;28;20570;-65
2021/04/16 02:38:44;;;;;;;10.25;5.20;;;;;;;;;;5069043;28;20024;-66
2021/04/16 02:41:09;;;;;;;7.93;4.47;;;;;;;;;;5067806;28;20023;-66
2021/04/16 02:43:35;;;;;;;11.38;5.03;;;;;;;;;;5051129;28;20024;-66
2021/04/16 02:46:00;;;;;;;11.55;5.55;;;;;;;;;;5066816;28;20021;-65
2021/04/16 02:48:25;;;;;;;10.00;4.93;;;;;;;;;;5066655;28;20051;-65
2021/04/16 02:50:50;;;;;;;14.13;5.13;;;;;;;;;;5068130;28;20070;-64
2021/04/16 02:53:16;;;;;;;13.30;4.38;;;;;;;;;;5064467;28;20020;-66
2021/04/16 02:55:41;;;;;;;9.23;4.85;;;;;;;;;;5060774;28;20103;-65
2021/04/16 02:58:07;;;;;;;10.75;5.57;;;;;;;;;;5066265;28;20520;-64
2021/04/16 03:00:33;;;;;;;10.23;5.03;;;;;;;;;;5053353;28;20462;-65
2021/04/16 03:02:58;;;;;;;15.23;4.70;;;;;;;;;;5072429;28;20099;-64
2021/04/16 03:05:24;;;;;;;9.63;4.65;;;;;;;;;;5072566;28;20032;-64
2021/04/16 03:07:50;;;;;;;10.80;4.85;;;;;;;;;;5068511;28;20023;-65
2021/04/16 03:10:17;;;;;;;14.73;5.38;;;;;;;;;;5062255;28;20417;-65
2021/04/16 03:12:42;;;;;;;8.88;4.43;;;;;;;;;;5066509;28;20025;-65
2021/04/16 03:15:07;;;;;;;14.20;5.45;;;;;;;;;;5061437;28;20473;-65
2021/04/16 03:17:33;;;;;;;11.20;5.28;;;;;;;;;;5068516;28;20021;-64
2021/04/16 03:19:59;;;;;;;10.68;5.22;;;;;;;;;;5065504;28;20025;-64
2021/04/16 03:22:24;;;;;;;12.18;5.60;;;;;;;;;;5069922;28;20067;-65
2021/04/16 03:24:49;;;;;;;13.18;5.90;;;;;;;;;;5069006;28;20100;-66
2021/04/16 03:27:15;;;;;;;17.92;7.43;;;;;;;;;;5072057;28;20089;-65
2021/04/16 03:29:40;;;;;;;12.38;5.88;;;;;;;;;;5072066;28;20093;-65
2021/04/16 03:32:05;;;;;;;13.63;6.35;;;;;;;;;;5072755;28;20377;-65
2021/04/16 03:34:30;;;;;;;17.95;6.30;;;;;;;;;;5066031;28;20025;-66
2021/04/16 03:36:56;;;;;;;12.70;5.97;;;;;;;;;;5072606;28;20384;-66
2021/04/16 03:39:21;;;;;;;17.35;7.03;;;;;;;;;;5072225;28;20033;-64
2021/04/16 03:41:46;;;;;;;15.73;6.47;;;;;;;;;;5072355;28;20028;-65
2021/04/16 03:44:11;;;;;;;16.27;6.33;;;;;;;;;;5072002;28;20111;-65
2021/04/16 03:46:36;;;;;;;20.25;6.45;;;;;;;;;;5072293;28;20290;-64
2021/04/16 03:49:02;;;;;;;12.15;6.30;;;;;;;;;;5059397;28;20036;-65
2021/04/16 03:51:27;;;;;;;15.60;6.55;;;;;;;;;;5071428;28;20031;-65
2021/04/16 03:53:53;;;;;;;17.42;6.35;;;;;;;;;;5072376;28;20024;-66
2021/04/16 03:56:18;;;;;;;17.08;6.82;;;;;;;;;;5071548;28;20107;-64
2021/04/16 03:58:45;;;;;;;12.68;5.97;;;;;;;;;;5071960;28;20036;-65
2021/04/16 04:01:10;;;;;;;13.40;5.82;;;;;;;;;;5068996;28;20051;-65
2021/04/16 04:03:35;;;;;;;11.90;5.88;;;;;;;;;;5055885;28;20079;-66
2021/04/16 04:06:01;;;;;;;18.48;6.38;;;;;;;;;;5070278;28;20016;-65
2021/04/16 04:08:26;;;;;;;12.63;6.30;;;;;;;;;;5069862;28;20056;-65
2021/04/16 04:10:51;;;;;;;15.40;7.22;;;;;;;;;;5068995;28;20760;-65
2021/04/16 04:13:17;;;;;;;13.32;6.75;;;;;;;;;;5061573;28;20040;-65
2021/04/16 04:15:42;;;;;;;18.42;7.05;;;;;;;;;;5068878;28;20082;-66
2021/04/16 04:18:08;;;;;;;18.73;7.03;;;;;;;;;;5071448;28;20473;-65
2021/04/16 04:20:35;;;;;;;16.33;6.90;;;;;;;;;;5070681;28;20025;-65
2021/04/16 04:23:01;;;;;;;13.05;6.20;;;;;;;;;;5071324;28;20024;-66
2021/04/16 04:25:27;;;;;;;13.48;6.40;;;;;;;;;;5071370;28;20028;-65
2021/04/16 04:27:53;;;;;;;18.50;6.80;;;;;;;;;;5070992;28;20016;-65
2021/04/16 04:30:19;;;;;;;14.60;6.70;;;;;;;;;;5062186;28;20456;-64
2021/04/16 04:32:45;;;;;;;11.52;6.35;;;;;;;;;;5066051;28;20523;-64
2021/04/16 04:35:10;;;;;;;15.98;6.78;;;;;;;;;;5071375;28;20052;-66
2021/04/16 04:37:36;;;;;;;14.73;6.45;;;;;;;;;;5071242;28;20028;-66
2021/04/16 04:40:01;;;;;;;17.08;6.90;;;;;;;;;;5070761;28;20028;-64
2021/04/16 04:42:26;;;;;;;16.05;6.82;;;;;;;;;;5070764;28;20516;-67
2021/04/16 04:44:51;;;;;;;13.35;7.00;;;;;;;;;;5068480;28;20024;-65
2021/04/16 04:47:17;;;;;;;16.10;7.18;;;;;;;;;;5070570;28;20536;-65
2021/04/16 04:49:42;;;;;;;13.80;6.43;;;;;;;;;;5071329;28;20024;-66
2021/04/16 04:52:12;;;;;;;14.70;7.07;;;;;;;;;;5070481;28;20032;-66
2021/04/16 04:54:38;;;;;;;13.60;6.60;;;;;;;;;;5069355;28;20569;-67
2021/04/16 04:57:03;;;;;;;15.55;6.18;;;;;;;;;;5070336;28;20028;-64
2021/04/16 04:59:28;;;;;;;13.70;7.20;;;;;;;;;;5071083;28;20028;-65
2021/04/16 05:01:53;;;;;;;14.95;6.25;;;;;;;;;;5070599;28;20016;-65
2021/04/16 05:04:19;;;;;;;22.88;7.70;;;;;;;;;;5070237;28;20031;-67
2021/04/16 05:06:44;;;;;;;15.20;6.43;;;;;;;;;;5057689;28;20021;-65
2021/04/16 05:09:09;;;;;;;11.88;6.70;;;;;;;;;;5070586;28;20116;-66
2021/04/16 05:11:34;;;;;;;22.73;7.25;;;;;;;;;;5069745;28;20074;-65
2021/04/16 05:13:59;;;;;;;20.92;7.97;;;;;;;;;;5070401;28;20409;-66
2021/04/16 05:16:25;;;;;;;15.50;7.35;;;;;;;;;;5059047;28;20032;-65
2021/04/16 05:18:52;;;;;;;15.85;7.43;;;;;;;;;;5059999;28;20385;-66
2021/04/16 05:21:17;;;;;;;16.05;7.88;;;;;;;;;;5049509;28;20021;-66
2021/04/16 05:23:43;;;;;;;15.88;7.45;;;;;;;;;;5067759;28;20058;-65
2021/04/16 05:26:08;;;;;;;17.58;7.07;;;;;;;;;;5067904;28;20020;-66
2021/04/16 05:28:33;;;;;;;25.57;8.43;;;;;;;;;;5061164;28;20025;-65
2021/04/16 05:30:58;;;;;;;22.77;8.10;;;;;;;;;;5065050;28;20693;-65
2021/04/16 05:33:23;;;;;;;21.92;8.63;;;;;;;;;;5065841;28;20044;-65
2021/04/16 05:35:48;;;;;;;24.20;8.20;;;;;;;;;;5059234;28;20071;-65
2021/04/16 05:38:14;;;;;;;19.20;7.70;;;;;;;;;;5051815;28;20268;-65
2021/04/16 05:40:39;;;;;;;13.32;7.05;;;;;;;;;;5067057;28;20150;-65
2021/04/16 05:43:04;;;;;;;17.43;7.07;;;;;;;;;;5067760;28;20400;-66
2021/04/16 05:45:29;;;;;;;24.60;8.13;;;;;;;;;;5058887;28;20369;-65
2021/04/16 05:47:54;;;;;;;15.90;7.68;;;;;;;;;;5065836;28;20024;-65
2021/04/16 05:50:20;;;;;;;24.95;7.88;;;;;;;;;;5076079;23;20020;-84
2021/04/16 05:52:45;;;;;;;19.48;7.97;;;;;;;;;;5038102;28;20016;-84
2021/04/16 05:55:11;;;;;;;18.10;7.38;;;;;;;;;;5039874;28;20111;-84
2021/04/16 05:57:37;;;;;;;19.63;8.20;;;;;;;;;;5047388;28;20028;-86
2021/04/16 06:00:04;;;;;;;18.52;8.88;;;;;;;;;;5046837;28;20024;-84
2021/04/16 06:02:32;;;;;;;23.88;9.20;;;;;;;;;;5050054;28;20115;-84
2021/04/16 06:04:58;;;;;;;22.38;8.32;;;;;;;;;;5046895;28;20069;-84
2021/04/16 06:07:23;;;;;;;16.00;8.15;;;;;;;;;;5068323;28;20025;-85
2021/04/16 06:09:50;;;;;;;16.42;8.48;;;;;;;;;;5050629;28;20047;-84
2021/04/16 06:12:15;;;;;;;12.90;8.05;;;;;;;;;;5069739;28;20099;-84
2021/04/16 06:14:41;;;;;;;20.20;7.72;;;;;;;;;;5050732;28;20139;-84
2021/04/16 06:17:07;;;;;;;16.85;8.15;;;;;;;;;;5051158;28;20028;-83
2021/04/16 06:19:32;;;;;;;14.98;8.02;;;;;;;;;;5051062;28;20480;-85
2021/04/16 06:21:57;;;;;;;12.20;7.50;;;;;;;;;;5065458;28;20532;-84
2021/04/16 06:24:22;;;;;;;14.10;7.07;;;;;;;;;;5052474;28;20078;-84
2021/04/16 06:26:48;;;;;;;15.35;8.63;;;;;;;;;;5100153;23;20077;-67
2021/04/16 06:29:13;;;;;;;17.10;6.60;;;;;;;;;;5083644;28;20077;-67
2021/04/16 06:31:38;;;;;;;15.27;7.27;;;;;;;;;;5084122;28;20519;-67
2021/04/16 06:34:03;;;;;;;16.42;7.53;;;;;;;;;;5083044;28;20268;-68
2021/04/16 06:36:28;;;;;;;16.83;6.65;;;;;;;;;;5081381;28;20701;-67
2021/04/16 06:38:54;;;;;;;14.60;6.60;;;;;;;;;;5089471;28;20024;-68
2021/04/16 06:41:23;;;;;;;11.80;6.55;;;;;;;;;;5121171;22;20036;-92
2021/04/16 06:43:57;;;;;;;20.05;7.00;;;;;;;;;;5057078;28;20373;-90
2021/04/16 06:47:01;;;;;;;14.25;7.05;;;;;;;;;;5055082;28;20480;-91
2021/04/16 06:49:50;;;;;;;15.20;6.03;;;;;;;;;;4978904;28;20022;-90
2021/04/16 06:52:33;;;;;;;17.17;5.43;;;;;;;;;;4988269;28;20025;-92
2021/04/16 06:55:26;;;;;;;15.88;5.50;;;;;;;;;;4979199;28;20039;-91
2021/04/16 07:00:41;;;;;;;9.57;5.00;;;;;;;;;;5067607;28;20053;-63
2021/04/16 07:03:18;;;;;;;6.90;4.40;;;;;;;;;;5053610;28;20021;-63
2021/04/16 07:05:54;;;;;;;7.10;4.15;;;;;;;;;;5065356;28;20030;-64
2021/04/16 07:08:39;;;;;;;6.57;3.83;;;;;;;;;;5071048;28;20545;-63
2021/04/16 07:11:13;;;;;;;7.38;3.47;;;;;;;;;;5064400;28;20029;-63
2021/04/16 07:13:39;;;;;;;6.53;3.58;;;;;;;;;;5073296;28;20543;-63
2021/04/16 07:16:05;;;;;;;9.57;3.70;;;;;;;;;;5073145;28;20054;-63
2021/04/16 07:18:34;;;;;;;5.88;3.67;;;;;;;;;;5062560;28;20033;-63
2021/04/16 07:20:59;;;;;;;9.55;3.95;;;;;;;;;;5063208;28;20050;-63
2021/04/16 07:23:25;;;;;;;7.43;3.10;;;;;;;;;;5072825;28;20031;-63
2021/04/16 07:26:10;;;;;;;5.55;3.08;;;;;;;;;;5072243;28;20016;-63
2021/04/16 07:28:41;;;;;;;10.77;3.22;;;;;;;;;;5060182;28;20098;-63
2021/04/16 07:31:26;;;;;;;9.30;3.45;;;;;;;;;;5073074;28;20021;-64
2021/04/16 07:33:52;;;;;;;8.80;3.78;;;;;;;;;;5072395;28;20111;-63
2021/04/16 07:36:25;;;;;;;6.78;3.28;;;;;;;;;;5056632;28;20100;-63
2021/04/16 07:38:57;;;;;;;6.90;3.10;;;;;;;;;;5069606;28;20070;-64
2021/04/16 07:41:25;;;;;;;6.57;3.17;;;;;;;;;;5072377;28;20025;-64
2021/04/16 07:43:51;;;;;;;7.70;3.13;;;;;;;;;;5071311;28;20103;-63
2021/04/16 07:46:38;;;;;;;8.60;4.00;;;;;;;;;;5072352;28;20114;-64
2021/04/16 07:49:06;;;;;;;6.63;3.30;;;;;;;;;;5071889;28;20561;-63
2021/04/16 07:51:32;;;;;;;7.68;2.88;;;;;;;;;;5070259;28;20106;-65
2021/04/16 07:54:15;;;;;;;6.43;3.33;;;;;;;;;;5061403;28;20496;-64
2021/04/16 07:56:41;;;;;;;6.03;3.45;;;;;;;;;;5071525;28;20020;-63
2021/04/16 07:59:13;;;;;;;8.52;4.10;;;;;;;;;;5071785;28;20059;-63
2021/04/16 08:01:39;;;;;;;6.38;3.67;;;;;;;;;;5071582;28;20027;-63
2021/04/16 08:04:10;;;;;;;5.78;3.20;;;;;;;;;;5072678;28;20027;-63
2021/04/16 08:06:40;;;;;;;6.63;3.80;;;;;;;;;;5071441;28;20031;-65
2021/04/16 08:09:14;;;;;;;7.97;3.20;;;;;;;;;;5071402;28;20017;-63
2021/04/16 08:11:40;;;;;;;5.90;3.58;;;;;;;;;;5070561;28;20039;-63
2021/04/16 08:14:09;;;;;;;6.72;3.78;;;;;;;;;;5072112;28;20207;-64
2021/04/16 08:16:53;;;;;;;10.68;3.58;;;;;;;;;;5071678;28;20017;-63
2021/04/16 08:19:19;;;;;;;9.20;3.28;;;;;;;;;;5071841;28;20058;-63
2021/04/16 08:21:46;;;;;;;7.10;3.42;;;;;;;;;;5071758;28;20020;-64
2021/04/16 08:24:14;;;;;;;11.38;3.50;;;;;;;;;;5072344;28;20039;-63
2021/04/16 08:26:40;;;;;;;5.15;3.20;;;;;;;;;;5070703;28;20416;-63
2021/04/16 08:29:26;;;;;;;6.90;3.22;;;;;;;;;;5071740;28;20464;-63
2021/04/16 08:31:58;;;;;;;9.48;3.42;;;;;;;;;;5070079;28;20103;-63
2021/04/16 08:34:31;;;;;;;6.00;3.60;;;;;;;;;;5071502;28;20021;-63
2021/04/16 08:36:58;;;;;;;6.15;3.65;;;;;;;;;;5071776;28;20476;-63
2021/04/16 08:39:31;;;;;;;7.70;3.55;;;;;;;;;;5071124;28;20027;-64
2021/04/16 08:41:58;;;;;;;8.30;3.60;;;;;;;;;;5071183;28;20303;-62
2021/04/16 08:44:24;;;;;;;6.40;3.47;;;;;;;;;;5070423;28;20032;-64
2021/04/16 08:46:54;;;;;;;6.85;3.50;;;;;;;;;;5071043;28;20021;-65
2021/04/16 08:49:22;;;;;;;6.97;3.23;;;;;;;;;;5071111;28;20492;-64
2021/04/16 08:51:49;;;;;;;5.47;3.00;;;;;;;;;;5070995;28;20051;-64
2021/04/16 08:54:18;;;;;;;4.97;3.42;;;;;;;;;;5070775;28;20495;-63
2021/04/16 08:57:09;;;;;;;7.72;3.33;;;;;;;;;;5070806;28;20033;-63
2021/04/16 08:59:44;;;;;;;8.23;2.83;;;;;;;;;;5065192;28;20076;-64
2021/04/16 09:02:17;;;;;;;5.93;2.42;;;;;;;;;;5070080;28;20428;-64
2021/04/16 09:04:47;;;;;;;4.47;2.67;;;;;;;;;;5070675;28;20024;-63
2021/04/16 09:07:28;;;;;;;7.47;3.00;;;;;;;;;;5071356;28;20020;-63
2021/04/16 09:09:56;;;;;;;6.60;2.72;;;;;;;;;;5070286;28;20012;-64
2021/04/16 09:12:41;;;;;;;4.35;2.75;;;;;;;;;;5070581;28;20477;-63
2021/04/16 09:15:18;;;;;;;4.78;3.03;;;;;;;;;;5068674;28;20398;-63
2021/04/16 09:17:53;;;;;;;6.18;2.80;;;;;;;;;;5062377;28;20522;-65
2021/04/16 09:20:21;;;;;;;5.43;2.63;;;;;;;;;;5069984;28;20477;-63
2021/04/16 09:22:46;;;;;;;5.15;2.65;;;;;;;;;;5069196;28;20040;-63
2021/04/16 09:25:30;;;;;;;7.63;2.63;;;;;;;;;;5070704;28;20399;-63
2021/04/16 09:28:15;;;;;;;6.93;2.92;;;;;;;;;;5069860;28;20028;-64
2021/04/16 09:30:41;;;;;;;6.20;2.70;;;;;;;;;;5069996;28;20024;-63
2021/04/16 09:33:13;;;;;;;10.20;2.78;;;;;;;;;;5070179;28;20116;-64
2021/04/16 09:35:38;;;;;;;6.35;3.13;;;;;;;;;;5050859;28;20036;-64
2021/04/16 09:38:22;;;;;;;9.65;2.95;;;;;;;;;;5065704;28;20063;-63
2021/04/16 09:41:05;;;;;;;10.00;3.00;;;;;;;;;;5070412;28;20356;-64
2021/04/16 09:43:30;;;;;;;9.07;2.92;;;;;;;;;;5068951;28;20028;-62
2021/04/16 09:45:55;;;;;;;10.98;3.33;;;;;;;;;;5070272;28;20070;-62
2021/04/16 09:48:20;;;;;;;8.80;4.45;;;;;;;;;;5069368;28;20028;-61
2021/04/16 09:50:47;;;;;;;6.40;3.33;;;;;;;;;;5066323;28;20017;-61
2021/04/16 09:53:12;;;;;;;10.43;3.22;;;;;;;;;;5065450;28;20269;-61
2021/04/16 09:55:41;;;;;;;9.63;3.55;;;;;;;;;;5070343;28;20016;-62
2021/04/16 09:58:07;;;;;;;6.63;3.53;;;;;;;;;;5069265;28;20263;-61
2021/04/16 10:00:35;;;;;;;6.03;3.50;;;;;;;;;;5069673;28;20031;-61
2021/04/16 10:03:20;;;;;;;4.75;2.65;;;;;;;;;;5070237;28;20466;-62
2021/04/16 10:05:46;;;;;;;7.57;3.13;;;;;;;;;;5069650;28;20059;-61
2021/04/16 10:08:30;;;;;;;10.75;5.68;;;;;;;;;;5068981;28;20047;-63
2021/04/16 10:11:04;;;;;;;5.82;3.22;;;;;;;;;;5052685;28;20529;-62
2021/04/16 10:13:31;;;;;;;13.13;4.50;;;;;;;;;;5069429;28;20028;-62
2021/04/16 10:15:57;;;;;;;5.63;2.85;;;;;;;;;;5069351;28;20028;-62
2021/04/16 10:18:27;;;;;;;8.85;4.35;;;;;;;;;;5069374;28;20450;-62
2021/04/16 10:20:57;;;;;;;9.43;3.95;;;;;;;;;;5070017;28;20021;-63
2021/04/16 10:23:25;;;;;;;9.73;3.85;;;;;;;;;;5069806;28;20025;-62
2021/04/16 10:39:04;;;;;;;5.55;3.05;;;;;;;;;;5070453;28;20063;-62
2021/04/16 11:06:33;;;;;;;6.38;2.72;;;;;;;;;;5069394;28;20119;-62
2021/04/16 11:33:32;;;;;;;5.90;2.88;;;;;;;;;;5073356;28;20104;-63
2021/04/16 12:40:22;;;;;;;10.63;2.40;;;;;;;;;;5071019;28;20058;-63
2021/04/16 12:42:47;;;;;;;6.75;1.60;;;;;;;;;;5055010;28;20722;-63
2021/04/16 12:45:13;;;;;;;6.07;1.77;;;;;;;;;;5068253;28;20032;-63
2021/04/16 12:47:38;;;;;;;3.92;1.92;;;;;;;;;;5070889;28;20020;-63
2021/04/16 12:50:05;;;;;;;3.15;1.67;;;;;;;;;;5070469;28;20090;-64
2021/04/16 12:52:30;;;;;;;3.67;1.90;;;;;;;;;;5071286;28;20385;-63
2021/04/16 12:54:55;;;;;;;4.33;2.00;;;;;;;;;;5071126;28;20024;-65
2021/04/16 12:57:20;;;;;;;5.20;2.00;;;;;;;;;;5070419;28;20251;-65
2021/04/16 12:59:45;;;;;;;2.38;1.40;;;;;;;;;;5058423;28;20714;-65
2021/04/16 13:02:24;;;;;;;3.33;1.70;;;;;;;;;;5071325;28;20020;-64
2021/04/16 13:04:50;;;;;;;4.55;1.80;;;;;;;;;;5071174;28;20029;-65
2021/04/16 13:07:15;;;;;;;4.15;1.98;;;;;;;;;;5071012;28;20025;-64
2021/04/16 13:09:40;;;;;;;4.30;1.77;;;;;;;;;;5070736;28;20016;-65
2021/04/16 13:12:06;;;;;;;6.38;1.90;;;;;;;;;;5071108;28;20017;-63
2021/04/16 13:14:31;;;;;;;2.83;1.38;;;;;;;;;;5068903;28;20020;-64
2021/04/16 13:16:57;;;;;;;3.80;1.75;;;;;;;;;;5066135;28;20031;-65
2021/04/16 13:19:26;;;;;;;4.83;1.37;;;;;;;;;;5070551;28;20449;-64
2021/04/16 13:21:57;;;;;;;5.03;1.83;;;;;;;;;;5070593;28;20258;-63
2021/04/16 13:24:22;;;;;;;4.28;1.92;;;;;;;;;;5070873;28;20075;-63
2021/04/16 13:26:47;;;;;;;3.70;2.42;;;;;;;;;;5070399;28;20021;-64
2021/04/16 13:29:12;;;;;;;5.57;2.20;;;;;;;;;;5070808;28;20085;-63
2021/04/16 13:31:38;;;;;;;5.33;2.20;;;;;;;;;;5068297;28;20013;-63
2021/04/16 13:34:03;;;;;;;4.18;1.83;;;;;;;;;;5070127;28;20255;-64
2021/04/16 13:36:30;;;;;;;10.15;2.55;;;;;;;;;;5069298;28;20108;-63
2021/04/16 13:38:56;;;;;;;4.40;1.90;;;;;;;;;;5068167;28;20551;-65
2021/04/16 13:41:21;;;;;;;3.83;2.20;;;;;;;;;;5069700;28;20107;-63
2021/04/16 13:43:48;;;;;;;2.60;1.70;;;;;;;;;;5066609;28;20099;-63
2021/04/16 13:46:15;;;;;;;4.55;1.63;;;;;;;;;;5068638;28;20025;-63
2021/04/16 13:48:42;;;;;;;3.55;1.83;;;;;;;;;;5066304;28;20044;-63
2021/04/16 13:51:08;;;;;;;3.35;1.70;;;;;;;;;;5068894;28;20028;-63
2021/04/16 13:53:33;;;;;;;3.95;1.60;;;;;;;;;;5070269;28;20043;-63
2021/04/16 13:55:58;;;;;;;3.27;1.30;;;;;;;;;;5068926;28;20610;-63
2021/04/16 13:58:23;;;;;;;3.75;1.80;;;;;;;;;;5069551;28;20329;-63
2021/04/16 14:00:50;;;;;;;4.43;1.67;;;;;;;;;;5068979;28;20111;-63
2021/04/16 14:03:25;;;;;;;4.22;1.63;;;;;;;;;;5070303;28;20273;-64
2021/04/16 14:05:51;;;;;;;6.60;2.45;;;;;;;;;;5067936;28;20284;-63
2021/04/16 14:08:22;;;;;;;6.30;1.73;;;;;;;;;;5069777;28;20104;-65
2021/04/16 14:10:47;;;;;;;3.42;1.85;;;;;;;;;;5069422;28;20051;-64
2021/04/16 14:13:12;;;;;;;4.17;1.70;;;;;;;;;;5070171;28;20017;-61
2021/04/16 14:15:37;;;;;;;3.60;2.00;;;;;;;;;;5069389;28;20267;-62
2021/04/16 14:18:03;;;;;;;3.97;1.70;;;;;;;;;;5069710;28;20692;-64
2021/04/16 14:20:32;;;;;;;4.32;1.92;;;;;;;;;;5070329;28;20488;-64
2021/04/16 14:22:59;;;;;;;2.58;1.60;;;;;;;;;;5064436;28;20029;-63
2021/04/16 14:25:26;;;;;;;5.97;2.15;;;;;;;;;;5059145;28;20396;-63
2021/04/16 14:27:51;;;;;;;3.05;2.22;;;;;;;;;;5068786;28;20029;-62
2021/04/16 14:30:17;;;;;;;8.63;2.42;;;;;;;;;;5068949;28;20492;-64
2021/04/16 14:32:42;;;;;;;10.20;2.30;;;;;;;;;;5060342;28;20020;-64
2021/04/16 14:35:07;;;;;;;4.13;2.35;;;;;;;;;;5069725;28;20056;-66
2021/04/16 14:37:33;;;;;;;8.70;2.42;;;;;;;;;;5070245;28;20087;-64
2021/04/16 14:39:58;;;;;;;4.00;2.47;;;;;;;;;;5063386;28;20478;-63
2021/04/16 14:42:23;;;;;;;4.47;2.15;;;;;;;;;;5063646;28;20285;-64
2021/04/16 14:44:48;;;;;;;3.63;2.53;;;;;;;;;;5063706;28;20087;-63
2021/04/16 14:47:14;;;;;;;6.23;2.90;;;;;;;;;;5067771;28;20087;-63
2021/04/16 14:49:39;;;;;;;7.37;2.43;;;;;;;;;;5067340;28;20270;-63
2021/04/16 14:52:07;;;;;;;6.55;2.90;;;;;;;;;;5063754;28;20324;-63
2021/04/16 14:54:37;;;;;;;13.50;2.90;;;;;;;;;;5068759;28;20028;-63
2021/04/16 14:57:05;;;;;;;10.10;2.42;;;;;;;;;;5064709;28;20040;-64
2021/04/16 14:59:33;;;;;;;5.07;2.30;;;;;;;;;;5065624;28;20047;-64
2021/04/16 15:01:58;;;;;;;7.65;2.83;;;;;;;;;;5072260;28;20025;-64
2021/04/16 15:04:24;;;;;;;10.90;2.97;;;;;;;;;;5071624;28;20082;-64
2021/04/16 15:06:57;;;;;;;3.63;2.38;;;;;;;;;;5070126;28;20032;-64
2021/04/16 15:09:24;;;;;;;6.03;2.85;;;;;;;;;;5072294;28;20078;-65
2021/04/16 15:11:50;;;;;;;15.25;2.80;;;;;;;;;;5072600;28;20024;-64
2021/04/16 15:14:18;;;;;;;7.57;2.60;;;;;;;;;;5064195;28;20024;-63
2021/04/16 15:16:45;;;;;;;6.90;3.08;;;;;;;;;;5069172;28;20039;-63
2021/04/16 15:19:15;;;;;;;8.35;3.35;;;;;;;;;;5072027;28;20127;-63
2021/04/16 15:21:40;;;;;;;4.55;2.67;;;;;;;;;;5071776;28;20023;-64
2021/04/16 15:24:05;;;;;;;4.53;2.83;;;;;;;;;;5072433;28;20021;-64
2021/04/16 15:26:31;;;;;;;7.10;3.00;;;;;;;;;;5072242;28;20759;-63
2021/04/16 15:29:01;;;;;;;5.75;2.85;;;;;;;;;;5072255;28;20016;-64
2021/04/16 15:31:33;;;;;;;4.93;3.05;;;;;;;;;;5069411;28;20171;-65
2021/04/16 15:47:25;;;;;;;6.10;2.75;;;;;;;;;;5071678;28;20412;-63
2021/04/16 15:49:51;;;;;;;7.10;2.88;;;;;;;;;;5069854;28;20020;-62
2021/04/16 15:52:16;;;;;;;4.07;2.45;;;;;;;;;;5071602;28;20027;-66
2021/04/16 15:54:41;;;;;;;7.35;3.00;;;;;;;;;;5071237;28;20039;-63
2021/04/16 15:57:06;;;;;;;5.35;2.65;;;;;;;;;;5070821;28;20012;-65
2021/04/16 15:59:38;;;;;;;7.47;2.78;;;;;;;;;;5074907;28;20039;-66
2021/04/16 16:02:08;;;;;;;6.60;2.90;;;;;;;;;;5071700;28;20085;-64
2021/04/16 16:04:33;;;;;;;8.48;3.13;;;;;;;;;;5069230;28;20051;-65
2021/04/16 16:07:00;;;;;;;4.75;2.72;;;;;;;;;;5065269;28;20028;-64
2021/04/16 16:09:26;;;;;;;7.15;2.97;;;;;;;;;;5067050;28;20021;-64
2021/04/16 16:11:55;;;;;;;5.93;2.97;;;;;;;;;;5078738;28;20427;-66
2021/04/16 16:14:27;;;;;;;5.28;2.70;;;;;;;;;;5085660;28;20008;-65
2021/04/16 16:16:53;;;;;;;8.93;3.17;;;;;;;;;;5070959;28;20024;-64
2021/04/16 16:19:18;;;;;;;7.82;2.60;;;;;;;;;;5069099;28;20034;-63
2021/04/16 16:21:44;;;;;;;10.45;3.72;;;;;;;;;;5066813;28;20090;-64
2021/04/16 16:24:09;;;;;;;8.23;2.88;;;;;;;;;;5065908;28;20028;-63
2021/04/16 16:26:37;;;;;;;6.55;2.58;;;;;;;;;;5069284;28;20453;-64
2021/04/16 16:29:07;;;;;;;5.00;2.38;;;;;;;;;;5069588;28;20024;-64
2021/04/16 16:31:33;;;;;;;;;;;;;;;;;;5070101;28;20086;-66
2021/04/16 16:33:58;;;;;;;4.63;2.53;;;;;;;;;;5075361;28;19908;-66
2021/04/16 16:36:23;;;;;;;8.13;2.90;;;;;;;;;;5073595;28;20031;-66
2021/04/16 16:38:48;;;;;;;5.07;2.38;;;;;;;;;;5070177;28;20020;-64
2021/04/16 16:41:14;;;;;;;4.40;2.58;;;;;;;;;;5071023;28;20033;-62
2021/04/16 16:43:42;;;;;;;4.85;2.58;;;;;;;;;;5070431;28;20020;-65
2021/04/16 16:46:12;;;;;;;7.53;2.30;;;;;;;;;;5070882;28;20033;-64
2021/04/16 16:48:37;;;;;;;7.40;3.10;;;;;;;;;;5068331;28;20035;-64
2021/04/16 16:51:03;;;;;;;6.47;3.00;;;;;;;;;;5070983;28;20012;-65
2021/04/16 16:53:29;;;;;;;6.30;2.72;;;;;;;;;;5070412;28;20027;-63
2021/04/16 16:55:54;;;;;;;9.55;3.00;;;;;;;;;;5067309;28;20012;-64
2021/04/16 16:58:21;;;;;;;6.32;2.75;;;;;;;;;;5066597;28;20111;-66
2021/04/16 17:00:51;;;;;;;8.70;3.50;;;;;;;;;;5067387;28;20021;-66
2021/04/16 17:03:16;;;;;;;5.20;2.65;;;;;;;;;;5069648;28;20503;-66